Time;durP1;ratioP1;P1;durP2;ratioP2;P2;SDS_P1;SDS_P2;PMS_P1;PMS_P2;Temp;Humidity;BMP_temperature;BMP_pressure;BME280_temperature;BME280_humidity;BME280_pressure;Samples;Min_cycle;Max_cycle;Signal;HPM_P1;HPM_P2
2023/06/01 00:00:18;;;;;;;;;;;;;;;21.32;60.26;101303.00;4896499;29;19934;-83
2023/06/01 00:02:49;;;;;;;;;;;;;;;21.33;60.68;101304.66;4916396;29;19926;-83
2023/06/01 00:05:16;;;;;;;;;;;;;;;21.34;60.95;101306.34;4937992;28;20443;-83
2023/06/01 00:07:48;;;;;;;;;;;;;;;21.33;60.73;101312.75;4879696;29;20293;-84
2023/06/01 00:10:23;;;;;;;;;;;;;;;21.33;60.34;101304.66;4906427;28;19933;-84
2023/06/01 00:12:52;;;;;;;;;;;;;;;21.37;59.92;101295.16;4912330;29;19926;-84
2023/06/01 00:15:19;;;;;;;;;;;;;;;21.34;59.97;101287.44;4919810;28;20222;-84
2023/06/01 00:17:51;;;;;;;;;;;;;;;21.32;60.42;101300.28;4915822;29;19938;-83
2023/06/01 00:20:18;;;;;;;;;;;;;;;21.29;61.03;101297.97;4922321;29;20197;-84
2023/06/01 00:22:48;;;;;;;;;;;;;;;21.29;61.35;101300.69;4920258;28;19949;-84
2023/06/01 00:25:15;;;;;;;;;;;;;;;21.30;61.02;101303.16;4935511;28;20451;-83
2023/06/01 00:27:41;;;;;;;;;;;;;;;21.22;61.17;101299.75;4918602;28;19927;-84
2023/06/01 00:30:08;;;;;;;;;;;;;;;21.17;61.37;101307.59;4919797;29;19926;-84
2023/06/01 00:32:35;;;;;;;;;;;;;;;21.10;61.59;101311.03;4917231;29;19931;-83
2023/06/01 00:35:02;;;;;;;;;;;;;;;21.21;61.05;101308.88;4911459;28;20429;-84
2023/06/01 00:37:28;;;;;;;;;;;;;;;21.19;60.99;101308.22;4921298;28;20400;-84
2023/06/01 00:39:55;;;;;;;;;;;;;;;21.15;61.34;101301.53;4933651;28;19985;-84
2023/06/01 00:42:22;;;;;;;;;;;;;;;21.09;61.48;101293.19;4923442;29;19927;-84
2023/06/01 00:44:50;;;;;;;;;;;;;;;21.08;61.23;101296.06;4920727;29;20243;-84
2023/06/01 00:47:16;;;;;;;;;;;;;;;20.99;61.46;101297.19;4932991;28;19927;-85
2023/06/01 00:49:43;;;;;;;;;;;;;;;20.95;61.77;101299.44;4917284;29;19931;-83
2023/06/01 00:52:10;;;;;;;;;;;;;;;20.92;61.96;101299.78;4920216;28;19927;-84
2023/06/01 00:54:37;;;;;;;;;;;;;;;20.87;62.14;101299.50;4924517;28;19937;-84
2023/06/01 00:57:06;;;;;;;;;;;;;;;20.88;62.12;101295.81;4918852;28;20189;-87
2023/06/01 00:59:36;;;;;;;;;;;;;;;20.31;61.88;101193.94;4916505;29;19966;-83
2023/06/01 01:02:04;;;;;;;;;;;;;;;20.86;61.86;101287.06;4919169;29;20208;-83
2023/06/01 01:04:32;;;;;;;;;;;;;;;20.87;61.51;101283.31;4925650;29;19969;-82
2023/06/01 01:07:11;;;;;;;;;;;;;;;20.82;61.35;101280.34;4911268;29;19934;-83
2023/06/01 01:09:44;;;;;;;;;;;;;;;20.88;60.71;101287.72;4925170;28;19926;-84
2023/06/01 01:12:21;;;;;;;;;;;;;;;20.84;60.99;101283.69;4894466;29;20205;-83
2023/06/01 01:14:51;;;;;;;;;;;;;;;20.82;60.86;101285.75;4898825;29;20176;-84
2023/06/01 01:17:38;;;;;;;;;;;;;;;20.81;60.79;101289.47;4899996;29;19962;-84
2023/06/01 01:20:10;;;;;;;;;;;;;;;20.83;60.60;101282.03;4899043;29;20165;-84
2023/06/01 01:22:51;;;;;;;;;;;;;;;20.77;60.70;101283.59;4892115;29;19978;-84
2023/06/01 01:25:25;;;;;;;;;;;;;;;20.74;60.72;101277.75;4927508;28;19930;-84
2023/06/01 01:27:57;;;;;;;;;;;;;;;20.69;60.95;101287.25;4917045;29;20217;-85
2023/06/01 01:30:27;;;;;;;;;;;;;;;20.62;61.12;101286.31;4931959;28;20013;-83
2023/06/01 01:32:57;;;;;;;;;;;;;;;20.65;60.87;101288.63;4917513;28;19932;-84
2023/06/01 01:35:26;;;;;;;;;;;;;;;20.63;61.22;101288.00;4916320;28;19933;-83
2023/06/01 01:37:55;;;;;;;;;;;;;;;20.61;60.98;101284.66;4920274;28;20369;-83
2023/06/01 01:40:27;;;;;;;;;;;;;;;20.63;61.06;101288.00;4911597;29;20373;-84
2023/06/01 01:42:57;;;;;;;;;;;;;;;20.59;61.12;101297.47;4894814;28;19930;-83
2023/06/01 01:45:24;;;;;;;;;;;;;;;20.62;60.84;101296.28;4918019;28;20605;-84
2023/06/01 01:47:51;;;;;;;;;;;;;;;20.60;60.71;101292.91;4917300;28;19934;-84
2023/06/01 01:50:21;;;;;;;;;;;;;;;20.65;60.26;101285.94;4916393;29;19930;-83
2023/06/01 01:52:48;;;;;;;;;;;;;;;20.61;60.30;101292.75;4915768;28;19931;-83
2023/06/01 01:55:23;;;;;;;;;;;;;;;20.53;60.94;101295.47;4883991;28;20163;-83
2023/06/01 01:57:56;;;;;;;;;;;;;;;20.58;60.44;101293.09;4911014;28;20368;-84
2023/06/01 02:00:24;;;;;;;;;;;;;;;20.56;60.20;101288.91;4912438;29;19961;-84
2023/06/01 02:03:00;;;;;;;;;;;;;;;20.56;60.18;101297.84;4922251;29;19973;-84
2023/06/01 02:05:27;;;;;;;;;;;;;;;20.52;60.41;101299.22;4939592;28;20351;-83
2023/06/01 02:07:53;;;;;;;;;;;;;;;20.51;60.50;101300.25;4915816;28;19926;-83
2023/06/01 02:10:20;;;;;;;;;;;;;;;20.51;60.57;101297.53;4924895;28;19927;-83
2023/06/01 02:12:47;;;;;;;;;;;;;;;20.45;60.78;101295.56;4907069;29;20408;-84
2023/06/01 02:15:14;;;;;;;;;;;;;;;20.50;60.39;101294.00;4900404;29;20292;-83
2023/06/01 02:17:41;;;;;;;;;;;;;;;20.49;60.67;101288.78;4909954;29;20041;-84
2023/06/01 02:20:11;;;;;;;;;;;;;;;20.54;60.42;101288.25;4917004;28;19926;-83
2023/06/01 02:22:38;;;;;;;;;;;;;;;20.58;60.42;101286.84;4916361;29;19993;-82
2023/06/01 02:25:05;;;;;;;;;;;;;;;20.57;60.49;101275.25;4922842;28;20373;-84
2023/06/01 02:27:32;;;;;;;;;;;;;;;20.48;60.68;101284.41;4920020;28;20384;-83
2023/06/01 02:29:59;;;;;;;;;;;;;;;20.56;60.06;101278.97;4921327;29;19931;-84
2023/06/01 02:32:26;;;;;;;;;;;;;;;20.53;60.32;101275.75;4922138;28;19936;-84
2023/06/01 02:34:53;;;;;;;;;;;;;;;20.56;60.43;101284.38;4917079;29;19931;-85
2023/06/01 02:37:20;;;;;;;;;;;;;;;20.60;60.13;101282.94;4902642;29;20628;-83
2023/06/01 02:39:50;;;;;;;;;;;;;;;20.60;60.09;101290.22;4918140;29;19927;-84
2023/06/01 02:42:17;;;;;;;;;;;;;;;20.61;60.12;101273.84;4916102;28;19926;-84
2023/06/01 02:44:44;;;;;;;;;;;;;;;20.59;60.41;101275.06;4919507;29;19938;-84
2023/06/01 02:47:11;;;;;;;;;;;;;;;20.57;60.25;101272.53;4917055;29;19932;-83
2023/06/01 02:49:41;;;;;;;;;;;;;;;20.51;60.86;101270.56;4916339;29;19927;-82
2023/06/01 02:52:08;;;;;;;;;;;;;;;20.41;61.06;101275.38;4908343;29;19986;-84
2023/06/01 02:54:37;;;;;;;;;;;;;;;20.38;61.13;101278.44;4929956;28;20025;-84
2023/06/01 02:57:05;;;;;;;;;;;;;;;20.32;61.32;101273.81;4905875;29;19930;-84
2023/06/01 02:59:35;;;;;;;;;;;;;;;20.26;61.34;101272.66;4915993;29;19930;-82
2023/06/01 03:02:05;;;;;;;;;;;;;;;20.26;61.28;101275.38;4911321;29;19930;-84
2023/06/01 03:04:32;;;;;;;;;;;;;;;20.34;60.97;101280.69;4938389;28;20025;-83
2023/06/01 03:07:01;;;;;;;;;;;;;;;20.26;60.96;101276.19;4916228;29;20449;-84
2023/06/01 03:09:27;;;;;;;;;;;;;;;20.36;60.55;101277.78;4906439;28;20016;-84
2023/06/01 03:11:54;;;;;;;;;;;;;;;20.32;60.73;101276.50;4898507;29;19993;-84
2023/06/01 03:14:21;;;;;;;;;;;;;;;20.41;60.12;101272.69;4898755;29;20377;-84
2023/06/01 03:16:48;;;;;;;;;;;;;;;20.33;60.66;101270.91;4911618;29;19949;-84
2023/06/01 03:19:17;;;;;;;;;;;;;;;20.24;60.99;101272.88;4897028;29;19934;-81
2023/06/01 03:21:46;;;;;;;;;;;;;;;20.19;61.09;101263.66;4906739;29;19958;-82
2023/06/01 03:24:17;;;;;;;;;;;;;;;19.84;61.13;101222.88;4917048;29;20160;-82
2023/06/01 03:26:53;;;;;;;;;;;;;;;19.71;61.28;101204.66;4909849;29;20228;-82
2023/06/01 03:29:24;;;;;;;;;;;;;;;20.08;61.69;101267.63;4900735;29;20227;-82
2023/06/01 03:31:51;;;;;;;;;;;;;;;20.08;61.88;101267.63;4912063;29;19966;-82
2023/06/01 03:34:21;;;;;;;;;;;;;;;20.05;61.90;101259.91;4904964;29;19934;-82
2023/06/01 03:36:48;;;;;;;;;;;;;;;20.16;61.32;101264.84;4914847;29;20139;-82
2023/06/01 03:39:15;;;;;;;;;;;;;;;20.06;61.90;101264.28;4917782;29;19926;-84
2023/06/01 03:41:43;;;;;;;;;;;;;;;20.02;62.02;101265.66;4911584;29;19954;-83
2023/06/01 03:44:11;;;;;;;;;;;;;;;20.03;62.00;101270.03;4915188;29;20410;-82
2023/06/01 03:46:38;;;;;;;;;;;;;;;20.07;61.92;101265.94;4916239;29;20368;-81
2023/06/01 03:49:05;;;;;;;;;;;;;;;20.04;61.58;101260.91;4887783;29;20136;-83
2023/06/01 03:51:36;;;;;;;;;;;;;;;20.11;61.99;101266.44;4904360;29;20145;-83
2023/06/01 03:54:03;;;;;;;;;;;;;;;20.05;62.48;101265.31;4892895;29;20017;-83
2023/06/01 03:56:30;;;;;;;;;;;;;;;20.01;62.50;101274.78;4911887;29;20058;-82
2023/06/01 03:58:57;;;;;;;;;;;;;;;20.21;61.51;101275.91;4891868;29;19927;-81
2023/06/01 04:01:26;;;;;;;;;;;;;;;20.21;61.46;101280.47;4914953;29;20490;-83
2023/06/01 04:03:55;;;;;;;;;;;;;;;20.15;61.79;101275.84;4916066;29;19927;-81
2023/06/01 04:06:29;;;;;;;;;;;;;;;20.14;61.76;101284.91;4917199;29;19931;-82
2023/06/01 04:09:06;;;;;;;;;;;;;;;20.18;61.15;101287.06;4934253;28;20285;-82
2023/06/01 04:11:33;;;;;;;;;;;;;;;20.12;61.85;101282.41;4922343;28;20448;-82
2023/06/01 04:14:00;;;;;;;;;;;;;;;20.16;61.46;101286.41;4923306;28;19934;-81
2023/06/01 04:16:26;;;;;;;;;;;;;;;20.14;61.54;101291.13;4923289;28;19930;-82
2023/06/01 04:18:53;;;;;;;;;;;;;;;20.18;60.89;101280.84;4921659;28;19926;-82
2023/06/01 04:21:20;;;;;;;;;;;;;;;20.13;61.55;101284.09;4922396;28;19953;-81
2023/06/01 04:23:48;;;;;;;;;;;;;;;20.11;61.28;101286.13;4938567;28;20179;-83
2023/06/01 04:26:15;;;;;;;;;;;;;;;20.14;61.80;101287.63;4920709;28;20247;-83
2023/06/01 04:28:45;;;;;;;;;;;;;;;20.10;62.21;101287.16;4939832;28;19958;-84
2023/06/01 04:31:16;;;;;;;;;;;;;;;20.15;62.32;101279.34;4921129;28;20009;-83
2023/06/01 04:33:52;;;;;;;;;;;;;;;20.19;61.51;101285.22;4924202;28;19930;-83
2023/06/01 04:36:22;;;;;;;;;;;;;;;20.24;61.85;101294.44;4921638;28;19949;-82
2023/06/01 04:38:53;;;;;;;;;;;;;;;20.23;61.51;101286.53;4929656;28;19933;-82
2023/06/01 04:41:24;;;;;;;;;;;;;;;20.24;62.04;101289.06;4902847;29;19933;-82
2023/06/01 04:43:58;;;;;;;;;;;;;;;20.32;61.49;101281.91;4900756;28;20154;-82
2023/06/01 04:46:29;;;;;;;;;;;;;;;20.37;61.13;101279.50;4912444;29;20375;-82
2023/06/01 04:48:58;;;;;;;;;;;;;;;20.43;60.40;101282.25;4919229;28;20363;-83
2023/06/01 04:51:26;;;;;;;;;;;;;;;20.10;60.83;101227.00;4912170;28;19926;-81
2023/06/01 04:53:53;;;;;;;;;;;;;;;20.53;60.40;101276.59;4921989;28;19977;-83
2023/06/01 04:56:24;;;;;;;;;;;;;;;20.59;60.34;101280.47;4936650;28;20086;-82
2023/06/01 04:58:51;;;;;;;;;;;;;;;20.61;60.44;101283.81;4919177;28;20383;-83
2023/06/01 05:01:18;;;;;;;;;;;;;;;20.66;60.61;101276.00;4919927;28;20627;-83
2023/06/01 05:03:45;;;;;;;;;;;;;;;20.66;60.43;101279.53;4920741;28;20154;-83
2023/06/01 05:06:15;;;;;;;;;;;;;;;20.73;60.17;101276.06;4936118;28;20016;-80
2023/06/01 05:08:42;;;;;;;;;;;;;;;20.83;59.94;101273.94;4911479;28;20457;-82
2023/06/01 05:11:09;;;;;;;;;;;;;;;20.92;59.91;101275.50;4886855;28;19965;-81
2023/06/01 05:13:40;;;;;;;;;;;;;;;20.94;59.50;101278.84;4923091;28;20438;-81
2023/06/01 05:16:08;;;;;;;;;;;;;;;21.04;59.36;101281.25;4939508;28;19934;-81
2023/06/01 05:18:35;;;;;;;;;;;;;;;21.06;58.83;101274.63;4922716;28;20613;-83
2023/06/01 05:21:02;;;;;;;;;;;;;;;21.18;58.83;101271.47;4922017;28;19940;-81
2023/06/01 05:23:32;;;;;;;;;;;;;;;21.31;58.11;101268.88;4919855;28;19926;-82
2023/06/01 05:26:01;;;;;;;;;;;;;;;21.27;59.35;101270.31;4922604;28;19933;-82
2023/06/01 05:28:30;;;;;;;;;;;;;;;21.28;59.09;101270.09;4939440;28;19960;-81
2023/06/01 05:31:00;;;;;;;;;;;;;;;21.37;58.64;101273.53;4926578;28;19982;-82
2023/06/01 05:33:30;;;;;;;;;;;;;;;21.52;57.79;101263.53;4919674;28;20259;-81
2023/06/01 05:35:57;;;;;;;;;;;;;;;21.57;57.29;101260.25;4920037;28;19930;-83
2023/06/01 05:38:24;;;;;;;;;;;;;;;21.41;57.04;101220.84;4931342;28;19933;-82
2023/06/01 05:40:50;;;;;;;;;;;;;;;21.73;56.30;101261.88;4920774;29;20030;-82
2023/06/01 05:43:17;;;;;;;;;;;;;;;21.77;56.82;101268.56;4919568;28;19926;-82
2023/06/01 05:45:44;;;;;;;;;;;;;;;21.79;56.69;101268.38;4924807;28;20029;-82
2023/06/01 05:48:13;;;;;;;;;;;;;;;21.87;56.92;101268.22;4923982;28;19962;-81
2023/06/01 05:50:41;;;;;;;;;;;;;;;21.90;56.82;101268.69;4924314;28;20174;-82
2023/06/01 05:53:08;;;;;;;;;;;;;;;22.07;55.77;101274.66;4913840;28;19980;-81
2023/06/01 05:55:35;;;;;;;;;;;;;;;22.04;55.73;101268.78;4941436;28;19926;-82
2023/06/01 05:58:02;;;;;;;;;;;;;;;22.13;55.70;101268.44;4913737;28;19927;-82
2023/06/01 06:00:30;;;;;;;;;;;;;;;22.13;55.29;101268.44;4926312;28;20029;-81
2023/06/01 06:02:56;;;;;;;;;;;;;;;22.12;55.34;101271.34;4916424;28;20110;-82
2023/06/01 06:05:23;;;;;;;;;;;;;;;22.04;56.15;101268.78;4916784;29;19926;-81
2023/06/01 06:07:50;;;;;;;;;;;;;;;22.04;55.68;101268.78;4921715;28;20206;-82
2023/06/01 06:10:17;;;;;;;;;;;;;;;21.98;57.02;101276.66;4914155;28;20117;-82
2023/06/01 06:12:44;;;;;;;;;;;;;;;22.03;56.60;101277.94;4926062;28;20198;-81
2023/06/01 06:15:13;;;;;;;;;;;;;;;22.00;56.36;101268.34;4906838;29;20021;-83
2023/06/01 06:17:46;;;;;;;;;;;;;;;22.15;56.04;101279.06;4919205;29;20384;-82
2023/06/01 06:20:15;;;;;;;;;;;;;;;22.24;56.08;101275.22;4918104;28;20001;-83
2023/06/01 06:22:44;;;;;;;;;;;;;;;22.26;55.40;101275.88;4907041;28;20712;-83
2023/06/01 06:25:12;;;;;;;;;;;;;;;22.33;55.05;101279.44;4903824;29;19926;-82
2023/06/01 06:27:39;;;;;;;;;;;;;;;22.44;54.49;101285.34;4930177;28;20385;-83
2023/06/01 06:30:06;;;;;;;;;;;;;;;22.42;54.94;101290.94;4914814;29;20051;-83
2023/06/01 06:32:35;;;;;;;;;;;;;;;22.37;54.58;101290.69;4917968;28;20303;-83
2023/06/01 06:35:05;;;;;;;;;;;;;;;22.40;54.29;101283.03;4889070;29;20154;-83
2023/06/01 06:37:41;;;;;;;;;;;;;;;22.36;54.43;101289.88;4876304;28;20500;-83
2023/06/01 06:40:17;;;;;;;;;;;;;;;22.40;54.52;101290.28;4900333;29;20029;-82
2023/06/01 06:42:44;;;;;;;;;;;;;;;22.38;54.96;101290.50;4938034;28;19926;-82
2023/06/01 06:45:17;;;;;;;;;;;;;;;22.39;54.67;101292.19;4928518;28;19927;-82
2023/06/01 06:47:45;;;;;;;;;;;;;;;22.06;55.70;101250.50;4916774;29;19931;-82
2023/06/01 06:50:12;;;;;;;;;;;;;;;22.35;55.90;101304.41;4936724;28;19931;-82
2023/06/01 06:52:42;;;;;;;;;;;;;;;22.45;55.82;101297.81;4928790;28;20166;-82
2023/06/01 06:55:10;;;;;;;;;;;;;;;22.43;55.91;101305.28;4936466;28;20205;-83
2023/06/01 06:57:39;;;;;;;;;;;;;;;22.46;55.60;101294.09;4920367;28;19926;-81
2023/06/01 07:00:14;;;;;;;;;;;;;;;22.40;56.27;101293.00;4888641;29;19933;-82
2023/06/01 07:02:45;;;;;;;;;;;;;;;22.50;55.86;101289.94;4899782;29;20385;-82
2023/06/01 07:05:14;;;;;;;;;;;;;;;22.38;56.50;101300.50;4906414;29;20021;-80
2023/06/01 07:07:41;;;;;;;;;;;;;;;22.46;56.67;101294.09;4899649;29;20736;-81
2023/06/01 07:10:08;;;;;;;;;;;;;;;22.56;56.12;101300.00;4891900;29;19935;-81
2023/06/01 07:12:37;;;;;;;;;;;;;;;22.24;56.51;101248.19;4905042;29;19927;-81
2023/06/01 07:15:06;;;;;;;;;;;;;;;22.47;56.89;101283.06;4896404;29;20364;-82
2023/06/01 07:17:33;;;;;;;;;;;;;;;22.60;56.22;101288.56;4897019;29;19931;-80
2023/06/01 07:20:00;;;;;;;;;;;;;;;22.77;56.25;101285.53;4897426;29;20698;-82
2023/06/01 07:22:27;;;;;;;;;;;;;;;22.76;56.39;101295.50;4912739;29;20541;-82
2023/06/01 07:24:54;;;;;;;;;;;;;;;22.82;56.30;101288.47;4877528;29;20405;-83
2023/06/01 07:27:21;;;;;;;;;;;;;;;22.85;56.25;101292.66;4873899;29;20121;-81
2023/06/01 07:29:49;;;;;;;;;;;;;;;23.04;55.64;101298.19;4897880;29;19931;-88
2023/06/01 07:32:16;;;;;;;;;;;;;;;23.05;55.76;101293.59;4891782;29;20005;-83
2023/06/01 07:34:45;;;;;;;;;;;;;;;23.01;55.72;101298.59;4893953;29;19934;-83
2023/06/01 07:37:12;;;;;;;;;;;;;;;22.99;56.17;101292.56;4883768;29;20300;-81
2023/06/01 07:39:42;;;;;;;;;;;;;;;23.00;56.66;101287.97;4891205;29;20321;-83
2023/06/01 07:42:09;;;;;;;;;;;;;;;23.12;56.41;101299.88;4879090;29;19982;-82
2023/06/01 07:44:36;;;;;;;;;;;;;;;23.33;54.94;101306.22;4881496;29;19933;-83
2023/06/01 07:47:03;;;;;;;;;;;;;;;23.31;54.88;101300.16;4902563;29;20391;-82
2023/06/01 07:49:30;;;;;;;;;;;;;;;23.24;54.68;101298.25;4901954;29;20388;-83
2023/06/01 07:51:58;;;;;;;;;;;;;;;23.46;54.22;101298.94;4900394;29;19982;-83
2023/06/01 07:54:28;;;;;;;;;;;;;;;23.38;55.30;101292.91;4860410;29;20198;-83
2023/06/01 07:56:56;;;;;;;;;;;;;;;23.41;54.69;101297.91;4854204;29;20414;-82
2023/06/01 07:59:27;;;;;;;;;;;;;;;23.52;54.70;101293.75;4861738;29;20229;-83
2023/06/01 08:01:56;;;;;;;;;;;;;;;23.60;53.96;101288.16;4905447;28;20017;-83
2023/06/01 08:04:26;;;;;;;;;;;;;;;23.61;54.23;101281.69;4923933;28;20273;-83
2023/06/01 08:06:55;;;;;;;;;;;;;;;23.59;54.49;101284.63;4920131;29;20452;-83
2023/06/01 08:09:25;;;;;;;;;;;;;;;23.62;54.46;101284.19;4923962;29;19937;-83
2023/06/01 08:11:57;;;;;;;;;;;;;;;23.74;54.50;101287.16;4900049;28;20017;-81
2023/06/01 08:14:24;;;;;;;;;;;;;;;23.83;53.41;101276.94;4918820;29;20017;-83
2023/06/01 08:16:51;;;;;;;;;;;;;;;23.95;53.24;101272.56;4920136;28;19970;-83
2023/06/01 08:19:18;;;;;;;;;;;;;;;23.92;53.37;101272.97;4910683;29;19965;-83
2023/06/01 08:21:47;;;;;;;;;;;;;;;24.10;52.83;101267.78;4913758;28;19940;-82
2023/06/01 08:24:18;;;;;;;;;;;;;;;24.10;52.42;101269.63;4895235;29;19926;-83
2023/06/01 08:26:45;;;;;;;;;;;;;;;24.15;52.15;101269.00;4912975;28;20294;-84
2023/06/01 08:29:12;;;;;;;;;;;;;;;24.27;51.83;101259.19;4914813;28;19934;-82
2023/06/01 08:31:39;;;;;;;;;;;;;;;24.15;52.63;101266.28;4942018;28;19930;-83
2023/06/01 08:34:06;;;;;;;;;;;;;;;24.16;53.06;101257.94;4925265;29;19927;-83
2023/06/01 08:36:35;;;;;;;;;;;;;;;24.34;51.49;101260.00;4918727;28;19931;-84
2023/06/01 08:39:19;;;;;;;;;;;;;;;24.24;52.21;101256.91;4925882;28;19973;-84
2023/06/01 08:41:54;;;;;;;;;;;;;;;24.26;52.78;101262.94;4936195;28;20434;-85
2023/06/01 08:44:24;;;;;;;;;;;;;;;24.47;51.69;101249.16;4937452;28;19930;-83
2023/06/01 08:46:51;;;;;;;;;;;;;;;24.46;51.94;101247.47;4917472;29;19970;-83
2023/06/01 08:49:19;;;;;;;;;;;;;;;24.59;52.37;101251.19;4911185;28;19926;-83
2023/06/01 08:51:50;;;;;;;;;;;;;;;24.35;52.39;101204.72;4914930;28;19954;-83
2023/06/01 08:54:17;;;;;;;;;;;;;;;24.60;51.91;101253.72;4922287;28;19933;-82
2023/06/01 08:56:44;;;;;;;;;;;;;;;24.66;50.88;101238.44;4932214;28;20645;-82
2023/06/01 08:59:15;;;;;;;;;;;;;;;24.25;50.13;101201.59;4928456;28;19927;-84
2023/06/01 09:01:42;;;;;;;;;;;;;;;24.67;50.79;101248.28;4920628;28;20603;-84
2023/06/01 09:04:09;;;;;;;;;;;;;;;24.84;51.52;101246.75;4924378;28;19940;-84
2023/06/01 09:06:38;;;;;;;;;;;;;;;24.91;49.84;101244.84;4921834;28;19930;-83
2023/06/01 09:09:14;;;;;;;;;;;;;;;24.95;49.15;101254.22;4919457;28;19926;-86
2023/06/01 09:11:47;;;;;;;;;;;;;;;24.91;49.25;101250.25;4915945;28;19981;-84
2023/06/01 09:14:28;;;;;;;;;;;;;;;24.93;49.63;101237.31;4886782;28;20260;-85
2023/06/01 09:16:57;;;;;;;;;;;;;;;25.16;49.73;101253.06;4889754;28;20181;-83
2023/06/01 09:19:40;;;;;;;;;;;;;;;24.97;49.65;101207.00;4936409;28;20078;-85
2023/06/01 09:22:10;;;;;;;;;;;;;;;25.30;49.76;101242.97;4927230;28;19933;-84
2023/06/01 09:24:40;;;;;;;;;;;;;;;25.02;48.80;101185.44;4923900;28;20025;-83
2023/06/01 09:27:09;;;;;;;;;;;;;;;25.49;48.94;101243.91;4916504;28;19989;-83
2023/06/01 09:29:36;;;;;;;;;;;;;;;25.69;48.22;101240.22;4915561;28;19978;-84
2023/06/01 09:32:03;;;;;;;;;;;;;;;25.71;47.46;101238.13;4916887;29;20361;-83
2023/06/01 09:34:30;;;;;;;;;;;;;;;25.64;47.84;101232.72;4918311;28;19927;-84
2023/06/01 09:37:05;;;;;;;;;;;;;;;25.58;48.34;101239.03;4922737;28;19958;-84
2023/06/01 09:39:35;;;;;;;;;;;;;;;25.55;48.73;101240.28;4935072;28;19927;-84
2023/06/01 09:42:07;;;;;;;;;;;;;;;25.54;48.49;101227.78;4923694;28;19969;-83
2023/06/01 09:44:38;;;;;;;;;;;;;;;25.49;48.51;101229.50;4917905;29;20205;-84
2023/06/01 09:47:09;;;;;;;;;;;;;;;25.56;47.95;101233.00;4913167;28;19938;-84
2023/06/01 09:49:38;;;;;;;;;;;;;;;25.69;47.13;101223.91;4924635;28;19930;-83
2023/06/01 09:52:05;;;;;;;;;;;;;;;25.65;46.97;101226.22;4920996;28;19989;-83
2023/06/01 09:54:32;;;;;;;;;;;;;;;25.69;46.82;101226.63;4918789;28;20216;-83
2023/06/01 09:57:00;;;;;;;;;;;;;;;25.68;46.94;101216.78;4918721;28;19930;-83
2023/06/01 09:59:41;;;;;;;;;;;;;;;25.94;46.92;101210.31;4917539;28;19932;-84
2023/06/01 10:02:13;;;;;;;;;;;;;;;26.09;46.17;101210.78;4935887;28;20300;-84
2023/06/01 10:04:41;;;;;;;;;;;;;;;26.25;45.63;101222.16;4932531;28;20165;-83
2023/06/01 10:07:11;;;;;;;;;;;;;;;26.46;45.55;101208.09;4933858;28;19926;-83
2023/06/01 10:09:41;;;;;;;;;;;;;;;26.53;45.14;101213.44;4908597;28;20167;-84
2023/06/01 10:12:11;;;;;;;;;;;;;;;26.66;44.15;101207.91;4921742;28;20380;-83
2023/06/01 10:14:40;;;;;;;;;;;;;;;26.93;44.94;101204.81;4937879;28;20212;-83
2023/06/01 10:17:07;;;;;;;;;;;;;;;26.93;44.20;101207.56;4919058;28;19933;-84
2023/06/01 10:19:37;;;;;;;;;;;;;;;26.83;44.01;101202.66;4935728;28;19930;-84
2023/06/01 10:22:07;;;;;;;;;;;;;;;26.98;44.40;101205.78;4917680;28;20001;-83
2023/06/01 10:24:41;;;;;;;;;;;;;;;27.04;44.00;101210.31;4934202;28;20176;-84
2023/06/01 10:27:15;;;;;;;;;;;;;;;26.88;43.55;101167.38;4936562;28;20154;-83
2023/06/01 10:29:48;;;;;;;;;;;;;;;27.21;42.78;101205.09;4915735;28;19933;-83
2023/06/01 10:32:35;;;;;;;;;;;;;;;27.44;42.59;101193.41;4918861;28;19941;-83
2023/06/01 10:35:05;;;;;;;;;;;;;;;27.52;41.79;101161.41;4925183;28;20009;-83
2023/06/01 10:37:33;;;;;;;;;;;;;;;28.04;41.50;101197.03;4927759;28;20471;-84
2023/06/01 10:40:18;;;;;;;;;;;;;;;28.15;40.73;101193.44;4907629;28;20495;-84
2023/06/01 10:42:45;;;;;;;;;;;;;;;28.12;40.98;101193.94;4913641;28;19996;-84
2023/06/01 10:45:32;;;;;;;;;;;;;;;28.11;41.04;101197.75;4932555;28;20368;-84
2023/06/01 10:48:03;;;;;;;;;;;;;;;27.90;41.30;101197.25;4934195;28;20388;-84
2023/06/01 10:50:30;;;;;;;;;;;;;;;27.68;41.35;101188.81;4918311;28;20002;-83
2023/06/01 10:53:17;;;;;;;;;;;;;;;27.58;42.34;101188.56;4918219;28;19926;-84
2023/06/01 10:55:43;;;;;;;;;;;;;;;27.66;42.04;101190.09;4919588;28;19933;-84
2023/06/01 10:58:21;;;;;;;;;;;;;;;27.65;42.44;101188.47;4919043;28;19926;-82
2023/06/01 11:00:48;;;;;;;;;;;;;;;27.63;42.70;101182.41;4918340;28;19938;-83
2023/06/01 11:03:15;;;;;;;;;;;;;;;27.77;41.81;101181.13;4924311;28;19966;-84
2023/06/01 11:05:51;;;;;;;;;;;;;;;28.00;41.19;101184.94;4905602;28;19938;-83
2023/06/01 11:08:31;;;;;;;;;;;;;;;28.20;40.36;101174.44;4931394;28;20380;-84
2023/06/01 11:10:59;;;;;;;;;;;;;;;28.22;40.23;101180.50;4939064;28;20415;-83
2023/06/01 11:13:34;;;;;;;;;;;;;;;28.14;40.40;101180.88;4930171;28;19926;-84
2023/06/01 11:16:22;;;;;;;;;;;;;;;28.30;40.51;101174.69;4931400;28;19930;-83
2023/06/01 11:18:57;;;;;;;;;;;;;;;28.42;41.02;101176.56;4941589;28;19930;-83
2023/06/01 11:21:27;;;;;;;;;;;;;;;28.74;40.73;101174.22;4950908;28;20115;-84
2023/06/01 11:23:56;;;;;;;;;;;;;;;28.91;40.30;101171.53;4923834;28;20534;-83
2023/06/01 11:26:28;;;;;;;;;;;;;;;29.07;39.73;101168.03;4927462;28;19926;-85
2023/06/01 11:29:04;;;;;;;;;;;;;;;29.01;38.90;101160.81;4919326;28;19933;-83
2023/06/01 11:31:39;;;;;;;;;;;;;;;29.28;39.20;101152.00;4916861;28;20108;-83
2023/06/01 11:34:10;;;;;;;;;;;;;;;29.51;39.08;101159.22;4923557;28;19926;-83
2023/06/01 11:36:41;;;;;;;;;;;;;;;29.69;38.38;101161.72;4920247;28;19926;-83
2023/06/01 11:39:20;;;;;;;;;;;;;;;29.77;37.69;101150.34;4926416;28;20152;-82
2023/06/01 11:41:50;;;;;;;;;;;;;;;30.07;37.43;101159.25;4919613;28;19981;-84
2023/06/01 11:44:25;;;;;;;;;;;;;;;30.10;36.79;101147.78;4924233;28;19949;-82
2023/06/01 11:46:59;;;;;;;;;;;;;;;29.99;36.10;101103.84;4872354;28;19926;-82
2023/06/01 11:49:41;;;;;;;;;;;;;;;30.29;36.64;101145.59;4902643;28;20455;-83
2023/06/01 11:52:12;;;;;;;;;;;;;;;30.33;36.03;101142.09;4929837;28;19977;-83
2023/06/01 11:54:39;;;;;;;;;;;;;;;30.40;35.63;101129.03;4926540;28;20041;-83
2023/06/01 11:57:06;;;;;;;;;;;;;;;30.56;36.40;101132.78;4916499;28;20379;-83
2023/06/01 11:59:41;;;;;;;;;;;;;;;30.83;35.75;101129.25;4921112;28;20134;-83
2023/06/01 12:02:18;;;;;;;;;;;;;;;31.09;35.67;101122.06;4889243;28;20277;-82
2023/06/01 12:04:56;;;;;;;;;;;;;;;31.16;35.20;101114.47;4923799;28;19926;-84
2023/06/01 12:07:24;;;;;;;;;;;;;;;31.18;35.59;101115.03;4916603;28;19934;-83
2023/06/01 12:09:53;;;;;;;;;;;;;;;31.34;35.17;101110.50;4911082;28;19981;-84
2023/06/01 12:12:24;;;;;;;;;;;;;;;31.55;34.40;101107.91;4915680;28;19926;-84
2023/06/01 12:14:51;;;;;;;;;;;;;;;31.80;33.77;101110.84;4922326;28;19926;-84
2023/06/01 12:17:20;;;;;;;;;;;;;;;31.88;33.41;101104.81;4912563;28;19926;-82
2023/06/01 12:19:48;;;;;;;;;;;;;;;31.89;33.42;101075.44;4919163;28;20112;-82
2023/06/01 12:22:17;;;;;;;;;;;;;;;32.13;33.44;101095.91;4915939;29;19941;-83
2023/06/01 12:24:44;;;;;;;;;;;;;;;32.02;33.14;101093.38;4934738;28;19930;-84
2023/06/01 12:27:17;;;;;;;;;;;;;;;31.88;33.63;101084.78;4933864;28;20161;-83
2023/06/01 12:29:46;;;;;;;;;;;;;;;32.04;33.81;101083.81;4916786;28;20624;-84
2023/06/01 12:32:15;;;;;;;;;;;;;;;31.72;33.47;101081.13;4877834;29;19926;-83
2023/06/01 12:34:48;;;;;;;;;;;;;;;31.44;33.72;101074.94;4911823;29;19926;-83
2023/06/01 12:37:16;;;;;;;;;;;;;;;30.84;34.64;101038.53;4917063;28;19931;-84
2023/06/01 12:39:56;;;;;;;;;;;;;;;31.29;34.93;101083.03;4924002;28;19926;-85
2023/06/01 12:42:43;;;;;;;;;;;;;;;31.42;34.38;101076.28;4915636;29;19931;-83
2023/06/01 12:45:09;;;;;;;;;;;;;;;31.62;33.49;101070.91;4919283;28;19933;-85
2023/06/01 12:47:37;;;;;;;;;;;;;;;31.82;32.91;101058.38;4913620;28;20191;-83